sensor_id;sensor_type;location;lat;lon;timestamp;pressure;altitude;pressure_sealevel;temperature;humidity
41632;BME280;37452;51.938;4.624;2023-03-21T00:02:07;77184.50;;;-142.75;100.00
41632;BME280;37452;51.938;4.624;2023-03-21T00:04:33;77196.31;;;-142.75;100.00
41632;BME280;37452;51.938;4.624;2023-03-21T00:06:58;77180.56;;;-142.75;100.00
41632;BME280;37452;51.938;4.624;2023-03-21T00:09:23;77184.50;;;-142.75;100.00
41632;BME280;37452;51.938;4.624;2023-03-21T00:11:48;77172.69;;;-142.75;100.00
41632;BME280;37452;51.938;4.624;2023-03-21T00:14:13;77176.63;;;-142.75;100.00
41632;BME280;37452;51.938;4.624;2023-03-21T00:16:44;77178.59;;;-142.75;100.00
41632;BME280;37452;51.938;4.624;2023-03-21T00:19:09;77188.44;;;-142.75;100.00
41632;BME280;37452;51.938;4.624;2023-03-21T00:21:36;77168.75;;;-142.75;100.00
41632;BME280;37452;51.938;4.624;2023-03-21T00:24:02;77172.69;;;-142.75;100.00
41632;BME280;37452;51.938;4.624;2023-03-21T00:26:28;77174.66;;;-142.75;100.00
41632;BME280;37452;51.938;4.624;2023-03-21T00:28:53;77186.47;;;-142.75;100.00
41632;BME280;37452;51.938;4.624;2023-03-21T00:31:18;77188.44;;;-142.75;100.00
41632;BME280;37452;51.938;4.624;2023-03-21T00:33:44;77192.38;;;-142.75;100.00
41632;BME280;37452;51.938;4.624;2023-03-21T00:36:09;77192.38;;;-142.75;100.00
41632;BME280;37452;51.938;4.624;2023-03-21T00:38:35;77200.25;;;-142.75;100.00
41632;BME280;37452;51.938;4.624;2023-03-21T00:41:04;77204.19;;;-142.75;100.00
41632;BME280;37452;51.938;4.624;2023-03-21T00:43:30;77196.31;;;-142.75;100.00
41632;BME280;37452;51.938;4.624;2023-03-21T00:45:57;77182.53;;;-142.75;100.00
41632;BME280;37452;51.938;4.624;2023-03-21T00:48:23;77198.28;;;-142.75;100.00
41632;BME280;37452;51.938;4.624;2023-03-21T00:50:49;77180.56;;;-142.75;100.00
41632;BME280;37452;51.938;4.624;2023-03-21T00:53:16;77176.63;;;-142.75;100.00
41632;BME280;37452;51.938;4.624;2023-03-21T00:55:41;77166.78;;;-142.75;100.00
41632;BME280;37452;51.938;4.624;2023-03-21T00:58:06;77184.50;;;-142.75;100.00
41632;BME280;37452;51.938;4.624;2023-03-21T01:00:32;77162.84;;;-142.75;100.00
41632;BME280;37452;51.938;4.624;2023-03-21T01:02:58;77160.88;;;-142.75;100.00
41632;BME280;37452;51.938;4.624;2023-03-21T01:05:29;77164.81;;;-142.75;100.00
41632;BME280;37452;51.938;4.624;2023-03-21T01:08:14;77168.75;;;-142.75;100.00
41632;BME280;37452;51.938;4.624;2023-03-21T01:10:41;77162.84;;;-142.75;100.00
41632;BME280;37452;51.938;4.624;2023-03-21T01:13:06;77164.81;;;-142.75;100.00
41632;BME280;37452;51.938;4.624;2023-03-21T01:15:32;77156.94;;;-142.75;100.00
41632;BME280;37452;51.938;4.624;2023-03-21T01:17:57;77156.94;;;-142.75;100.00
41632;BME280;37452;51.938;4.624;2023-03-21T01:20:22;77158.91;;;-142.75;100.00
41632;BME280;37452;51.938;4.624;2023-03-21T01:22:47;77149.06;;;-142.75;100.00
41632;BME280;37452;51.938;4.624;2023-03-21T01:25:13;77141.19;;;-142.75;100.00
41632;BME280;37452;51.938;4.624;2023-03-21T01:27:38;77149.06;;;-142.75;100.00
41632;BME280;37452;51.938;4.624;2023-03-21T01:30:03;77143.16;;;-142.75;100.00
41632;BME280;37452;51.938;4.624;2023-03-21T01:32:29;77145.13;;;-142.75;100.00
41632;BME280;37452;51.938;4.624;2023-03-21T01:34:54;77154.97;;;-142.75;100.00
41632;BME280;37452;51.938;4.624;2023-03-21T01:37:19;77143.16;;;-142.75;100.00
41632;BME280;37452;51.938;4.624;2023-03-21T01:39:44;77145.13;;;-142.75;100.00
41632;BME280;37452;51.938;4.624;2023-03-21T01:42:11;77143.16;;;-142.75;100.00
41632;BME280;37452;51.938;4.624;2023-03-21T01:44:56;77166.78;;;-142.75;100.00
41632;BME280;37452;51.938;4.624;2023-03-21T01:47:22;77160.88;;;-142.75;100.00
41632;BME280;37452;51.938;4.624;2023-03-21T01:49:48;77166.78;;;-142.75;100.00
41632;BME280;37452;51.938;4.624;2023-03-21T01:52:16;77164.81;;;-142.75;100.00
41632;BME280;37452;51.938;4.624;2023-03-21T01:54:43;77172.69;;;-142.75;100.00
41632;BME280;37452;51.938;4.624;2023-03-21T01:57:12;77170.72;;;-142.75;100.00
41632;BME280;37452;51.938;4.624;2023-03-21T01:59:47;77162.84;;;-142.75;100.00
41632;BME280;37452;51.938;4.624;2023-03-21T02:02:19;77162.84;;;-142.75;100.00
41632;BME280;37452;51.938;4.624;2023-03-21T02:04:47;77162.84;;;-142.75;100.00
41632;BME280;37452;51.938;4.624;2023-03-21T02:07:15;77149.06;;;-142.75;100.00
41632;BME280;37452;51.938;4.624;2023-03-21T02:09:44;77162.84;;;-142.75;100.00
41632;BME280;37452;51.938;4.624;2023-03-21T02:12:10;77156.94;;;-142.75;100.00
41632;BME280;37452;51.938;4.624;2023-03-21T02:14:35;77154.97;;;-142.75;100.00
41632;BME280;37452;51.938;4.624;2023-03-21T02:19:42;77143.16;;;-142.75;100.00
41632;BME280;37452;51.938;4.624;2023-03-21T02:27:19;77135.28;;;-142.75;100.00
41632;BME280;37452;51.938;4.624;2023-03-21T02:30:00;77129.38;;;-142.75;100.00
41632;BME280;37452;51.938;4.624;2023-03-21T02:42:20;77141.19;;;-142.75;100.00
41632;BME280;37452;51.938;4.624;2023-03-21T02:44:58;77137.25;;;-142.75;100.00
41632;BME280;37452;51.938;4.624;2023-03-21T02:47:44;77133.31;;;-142.75;100.00
41632;BME280;37452;51.938;4.624;2023-03-21T02:51:15;77141.19;;;-142.75;100.00
41632;BME280;37452;51.938;4.624;2023-03-21T02:53:08;77139.22;;;-142.75;100.00
41632;BME280;37452;51.938;4.624;2023-03-21T02:55:35;77125.44;;;-142.75;100.00
41632;BME280;37452;51.938;4.624;2023-03-21T02:58:01;77139.22;;;-142.75;100.00
41632;BME280;37452;51.938;4.624;2023-03-21T03:00:28;77141.19;;;-142.75;100.00
41632;BME280;37452;51.938;4.624;2023-03-21T03:02:54;77145.13;;;-142.75;100.00
41632;BME280;37452;51.938;4.624;2023-03-21T03:05:22;77133.31;;;-142.75;100.00
41632;BME280;37452;51.938;4.624;2023-03-21T03:13:21;77143.16;;;-142.75;100.00
41632;BME280;37452;51.938;4.624;2023-03-21T03:18:25;77143.16;;;-142.75;100.00
41632;BME280;37452;51.938;4.624;2023-03-21T03:20:55;77137.25;;;-142.75;100.00
41632;BME280;37452;51.938;4.624;2023-03-21T03:24:11;77137.25;;;-142.75;100.00
41632;BME280;37452;51.938;4.624;2023-03-21T03:26:11;77149.06;;;-142.75;100.00
41632;BME280;37452;51.938;4.624;2023-03-21T03:28:40;77137.25;;;-142.75;100.00
41632;BME280;37452;51.938;4.624;2023-03-21T03:31:07;77147.09;;;-142.75;100.00
41632;BME280;37452;51.938;4.624;2023-03-21T03:33:37;77139.22;;;-142.75;100.00
41632;BME280;37452;51.938;4.624;2023-03-21T03:36:04;77143.16;;;-142.75;100.00
41632;BME280;37452;51.938;4.624;2023-03-21T03:38:31;77145.13;;;-142.75;100.00
41632;BME280;37452;51.938;4.624;2023-03-21T03:41:00;77149.06;;;-142.75;100.00
41632;BME280;37452;51.938;4.624;2023-03-21T03:43:41;77145.13;;;-142.75;100.00
41632;BME280;37452;51.938;4.624;2023-03-21T03:46:12;77168.75;;;-142.75;100.00
41632;BME280;37452;51.938;4.624;2023-03-21T03:48:43;77153.00;;;-142.75;100.00
41632;BME280;37452;51.938;4.624;2023-03-21T03:51:12;77156.94;;;-142.75;100.00
41632;BME280;37452;51.938;4.624;2023-03-21T03:53:41;77154.97;;;-142.75;100.00
41632;BME280;37452;51.938;4.624;2023-03-21T03:56:08;77166.78;;;-142.75;100.00
41632;BME280;37452;51.938;4.624;2023-03-21T03:58:35;77156.94;;;-142.75;100.00
41632;BME280;37452;51.938;4.624;2023-03-21T04:01:03;77153.00;;;-142.75;100.00
41632;BME280;37452;51.938;4.624;2023-03-21T04:03:28;77162.84;;;-142.75;100.00
41632;BME280;37452;51.938;4.624;2023-03-21T04:05:54;77156.94;;;-142.75;100.00
41632;BME280;37452;51.938;4.624;2023-03-21T04:08:19;77158.91;;;-142.75;100.00
41632;BME280;37452;51.938;4.624;2023-03-21T04:10:47;77153.00;;;-142.75;100.00
41632;BME280;37452;51.938;4.624;2023-03-21T04:13:12;77145.13;;;-142.75;100.00
41632;BME280;37452;51.938;4.624;2023-03-21T04:15:37;77133.31;;;-142.75;100.00
41632;BME280;37452;51.938;4.624;2023-03-21T04:18:02;77145.13;;;-142.75;100.00
41632;BME280;37452;51.938;4.624;2023-03-21T04:20:28;77147.09;;;-142.75;100.00
41632;BME280;37452;51.938;4.624;2023-03-21T04:22:53;77139.22;;;-142.75;100.00
41632;BME280;37452;51.938;4.624;2023-03-21T04:25:20;77139.22;;;-142.75;100.00
41632;BME280;37452;51.938;4.624;2023-03-21T04:27:45;77125.44;;;-142.75;100.00
41632;BME280;37452;51.938;4.624;2023-03-21T04:30:12;77135.28;;;-142.75;100.00
41632;BME280;37452;51.938;4.624;2023-03-21T04:32:38;77135.28;;;-142.75;100.00
41632;BME280;37452;51.938;4.624;2023-03-21T04:35:04;77131.34;;;-142.75;100.00
41632;BME280;37452;51.938;4.624;2023-03-21T04:37:30;77121.50;;;-142.75;100.00
41632;BME280;37452;51.938;4.624;2023-03-21T04:39:57;77125.44;;;-142.75;100.00
41632;BME280;37452;51.938;4.624;2023-03-21T04:42:23;77127.41;;;-142.75;100.00
41632;BME280;37452;51.938;4.624;2023-03-21T04:44:48;77141.19;;;-142.75;100.00
41632;BME280;37452;51.938;4.624;2023-03-21T04:47:13;77131.34;;;-142.75;100.00
41632;BME280;37452;51.938;4.624;2023-03-21T04:49:40;77121.50;;;-142.75;100.00
41632;BME280;37452;51.938;4.624;2023-03-21T04:52:05;77127.41;;;-142.75;100.00
41632;BME280;37452;51.938;4.624;2023-03-21T04:54:30;77119.53;;;-142.75;100.00
41632;BME280;37452;51.938;4.624;2023-03-21T04:56:59;77156.94;;;-142.75;100.00
41632;BME280;37452;51.938;4.624;2023-03-21T04:59:24;77143.16;;;-142.75;100.00
41632;BME280;37452;51.938;4.624;2023-03-21T05:01:50;77121.50;;;-142.75;100.00
41632;BME280;37452;51.938;4.624;2023-03-21T05:04:15;77113.63;;;-142.75;100.00
41632;BME280;37452;51.938;4.624;2023-03-21T05:06:41;77119.53;;;-142.75;100.00
41632;BME280;37452;51.938;4.624;2023-03-21T05:09:07;77105.75;;;-142.75;100.00
41632;BME280;37452;51.938;4.624;2023-03-21T05:11:33;77103.78;;;-142.75;100.00
41632;BME280;37452;51.938;4.624;2023-03-21T05:14:01;77117.56;;;-142.75;100.00
41632;BME280;37452;51.938;4.624;2023-03-21T05:16:26;77113.63;;;-142.75;100.00
41632;BME280;37452;51.938;4.624;2023-03-21T05:18:54;77113.63;;;-142.75;100.00
41632;BME280;37452;51.938;4.624;2023-03-21T05:21:20;77111.66;;;-142.75;100.00
41632;BME280;37452;51.938;4.624;2023-03-21T05:23:46;77117.56;;;-142.75;100.00
41632;BME280;37452;51.938;4.624;2023-03-21T05:26:18;77115.59;;;-142.75;100.00
41632;BME280;37452;51.938;4.624;2023-03-21T05:28:44;77115.59;;;-142.75;100.00
41632;BME280;37452;51.938;4.624;2023-03-21T05:31:11;77121.50;;;-142.75;100.00
41632;BME280;37452;51.938;4.624;2023-03-21T05:33:40;77121.50;;;-142.75;100.00
41632;BME280;37452;51.938;4.624;2023-03-21T05:36:05;77129.38;;;-142.75;100.00
41632;BME280;37452;51.938;4.624;2023-03-21T05:38:30;77133.31;;;-142.75;100.00
41632;BME280;37452;51.938;4.624;2023-03-21T05:40:55;77123.47;;;-142.75;100.00
41632;BME280;37452;51.938;4.624;2023-03-21T05:43:21;77129.38;;;-142.75;100.00
41632;BME280;37452;51.938;4.624;2023-03-21T05:45:46;77127.41;;;-142.75;100.00
41632;BME280;37452;51.938;4.624;2023-03-21T05:48:12;77127.41;;;-142.75;100.00
41632;BME280;37452;51.938;4.624;2023-03-21T05:50:37;77127.41;;;-142.75;100.00
41632;BME280;37452;51.938;4.624;2023-03-21T05:53:02;77129.38;;;-142.75;100.00
41632;BME280;37452;51.938;4.624;2023-03-21T05:55:28;77129.38;;;-142.75;100.00
41632;BME280;37452;51.938;4.624;2023-03-21T05:57:53;77135.28;;;-142.75;100.00
41632;BME280;37452;51.938;4.624;2023-03-21T06:00:18;77135.28;;;-142.75;100.00
41632;BME280;37452;51.938;4.624;2023-03-21T06:02:45;77141.19;;;-142.75;100.00
41632;BME280;37452;51.938;4.624;2023-03-21T06:05:11;77149.06;;;-142.75;100.00
41632;BME280;37452;51.938;4.624;2023-03-21T06:07:36;77131.34;;;-142.75;100.00
41632;BME280;37452;51.938;4.624;2023-03-21T06:10:02;77143.16;;;-142.75;100.00
41632;BME280;37452;51.938;4.624;2023-03-21T06:12:28;77153.00;;;-142.75;100.00
41632;BME280;37452;51.938;4.624;2023-03-21T06:14:53;77153.00;;;-142.75;100.00
41632;BME280;37452;51.938;4.624;2023-03-21T06:17:18;77141.19;;;-142.75;100.00
41632;BME280;37452;51.938;4.624;2023-03-21T06:19:44;77145.13;;;-142.75;100.00
41632;BME280;37452;51.938;4.624;2023-03-21T06:22:09;77129.38;;;-142.75;100.00
41632;BME280;37452;51.938;4.624;2023-03-21T06:24:34;77147.09;;;-142.75;100.00
41632;BME280;37452;51.938;4.624;2023-03-21T06:26:59;77156.94;;;-142.75;100.00
41632;BME280;37452;51.938;4.624;2023-03-21T06:29:25;77145.13;;;-142.75;100.00
41632;BME280;37452;51.938;4.624;2023-03-21T06:31:50;77158.91;;;-142.75;100.00
41632;BME280;37452;51.938;4.624;2023-03-21T06:34:15;77160.88;;;-142.75;100.00
41632;BME280;37452;51.938;4.624;2023-03-21T06:36:40;77143.16;;;-142.75;100.00
41632;BME280;37452;51.938;4.624;2023-03-21T06:39:08;77135.28;;;-142.75;100.00
41632;BME280;37452;51.938;4.624;2023-03-21T06:41:34;77121.50;;;-142.75;100.00
41632;BME280;37452;51.938;4.624;2023-03-21T06:43:59;77127.41;;;-142.75;100.00
41632;BME280;37452;51.938;4.624;2023-03-21T06:46:25;77125.44;;;-142.75;100.00
41632;BME280;37452;51.938;4.624;2023-03-21T06:48:50;77139.22;;;-142.75;100.00
41632;BME280;37452;51.938;4.624;2023-03-21T06:51:16;77129.38;;;-142.75;100.00
41632;BME280;37452;51.938;4.624;2023-03-21T06:53:41;77137.25;;;-142.75;100.00
41632;BME280;37452;51.938;4.624;2023-03-21T06:56:10;77137.25;;;-142.75;100.00
41632;BME280;37452;51.938;4.624;2023-03-21T06:58:35;77129.38;;;-142.75;100.00
41632;BME280;37452;51.938;4.624;2023-03-21T07:01:01;77133.31;;;-142.75;100.00
41632;BME280;37452;51.938;4.624;2023-03-21T07:03:27;77117.56;;;-142.75;100.00
41632;BME280;37452;51.938;4.624;2023-03-21T07:05:52;77113.63;;;-142.75;100.00
41632;BME280;37452;51.938;4.624;2023-03-21T07:08:17;77097.88;;;-142.75;100.00
41632;BME280;37452;51.938;4.624;2023-03-21T07:10:43;77097.88;;;-142.75;100.00
41632;BME280;37452;51.938;4.624;2023-03-21T07:13:10;77121.50;;;-142.75;100.00
41632;BME280;37452;51.938;4.624;2023-03-21T07:15:35;77090.00;;;-142.75;100.00
41632;BME280;37452;51.938;4.624;2023-03-21T07:18:05;77101.81;;;-142.75;100.00
41632;BME280;37452;51.938;4.624;2023-03-21T07:20:31;77113.63;;;-142.75;100.00
41632;BME280;37452;51.938;4.624;2023-03-21T07:22:56;77109.69;;;-142.75;100.00
41632;BME280;37452;51.938;4.624;2023-03-21T07:25:22;77117.56;;;-142.75;100.00
41632;BME280;37452;51.938;4.624;2023-03-21T07:27:47;77119.53;;;-142.75;100.00
41632;BME280;37452;51.938;4.624;2023-03-21T07:30:12;77127.41;;;-142.75;100.00
41632;BME280;37452;51.938;4.624;2023-03-21T07:32:38;77101.81;;;-142.75;100.00
41632;BME280;37452;51.938;4.624;2023-03-21T07:35:03;77113.63;;;-142.75;100.00
41632;BME280;37452;51.938;4.624;2023-03-21T07:37:29;77091.97;;;-142.75;100.00
41632;BME280;37452;51.938;4.624;2023-03-21T07:39:55;77101.81;;;-142.75;100.00
41632;BME280;37452;51.938;4.624;2023-03-21T07:42:20;77090.00;;;-142.75;100.00
41632;BME280;37452;51.938;4.624;2023-03-21T07:44:45;77086.06;;;-142.75;100.00
41632;BME280;37452;51.938;4.624;2023-03-21T07:47:10;77101.81;;;-142.75;100.00
41632;BME280;37452;51.938;4.624;2023-03-21T07:49:36;77088.03;;;-142.75;100.00
41632;BME280;37452;51.938;4.624;2023-03-21T07:52:01;77086.06;;;-142.75;100.00
41632;BME280;37452;51.938;4.624;2023-03-21T07:54:27;77097.88;;;-142.75;100.00
41632;BME280;37452;51.938;4.624;2023-03-21T07:56:53;77082.13;;;-142.75;100.00
41632;BME280;37452;51.938;4.624;2023-03-21T07:59:18;77074.25;;;-142.75;100.00
41632;BME280;37452;51.938;4.624;2023-03-21T08:01:43;77058.50;;;-142.75;100.00
41632;BME280;37452;51.938;4.624;2023-03-21T08:04:08;77062.44;;;-142.75;100.00
41632;BME280;37452;51.938;4.624;2023-03-21T08:06:33;77068.34;;;-142.75;100.00
41632;BME280;37452;51.938;4.624;2023-03-21T08:08:59;77062.44;;;-142.75;100.00
41632;BME280;37452;51.938;4.624;2023-03-21T08:11:24;77074.25;;;-142.75;100.00
41632;BME280;37452;51.938;4.624;2023-03-21T08:13:51;77082.13;;;-142.75;100.00
41632;BME280;37452;51.938;4.624;2023-03-21T08:16:17;77084.09;;;-142.75;100.00
41632;BME280;37452;51.938;4.624;2023-03-21T08:18:43;77072.28;;;-142.75;100.00
41632;BME280;37452;51.938;4.624;2023-03-21T08:21:08;77072.28;;;-142.75;100.00
41632;BME280;37452;51.938;4.624;2023-03-21T08:23:33;77070.31;;;-142.75;100.00
41632;BME280;37452;51.938;4.624;2023-03-21T08:25:59;77076.22;;;-142.75;100.00
41632;BME280;37452;51.938;4.624;2023-03-21T08:28:25;77068.34;;;-142.75;100.00
41632;BME280;37452;51.938;4.624;2023-03-21T08:30:50;77070.31;;;-142.75;100.00
41632;BME280;37452;51.938;4.624;2023-03-21T08:33:16;77068.34;;;-142.75;100.00
41632;BME280;37452;51.938;4.624;2023-03-21T08:35:43;77056.53;;;-142.75;100.00
41632;BME280;37452;51.938;4.624;2023-03-21T08:38:08;77064.41;;;-142.75;100.00
41632;BME280;37452;51.938;4.624;2023-03-21T08:40:33;77046.69;;;-142.75;100.00
41632;BME280;37452;51.938;4.624;2023-03-21T08:42:59;77028.97;;;-142.75;100.00
41632;BME280;37452;51.938;4.624;2023-03-21T08:45:25;77027.00;;;-142.75;100.00
41632;BME280;37452;51.938;4.624;2023-03-21T08:47:51;77021.09;;;-142.75;100.00
41632;BME280;37452;51.938;4.624;2023-03-21T08:50:18;77011.25;;;-142.75;100.00
41632;BME280;37452;51.938;4.624;2023-03-21T08:52:43;77009.28;;;-142.75;100.00
41632;BME280;37452;51.938;4.624;2023-03-21T08:55:09;77007.31;;;-142.75;100.00
41632;BME280;37452;51.938;4.624;2023-03-21T08:57:35;76995.50;;;-142.75;100.00
41632;BME280;37452;51.938;4.624;2023-03-21T09:00:00;76995.50;;;-142.75;100.00
41632;BME280;37452;51.938;4.624;2023-03-21T09:02:25;76975.81;;;-142.75;100.00
41632;BME280;37452;51.938;4.624;2023-03-21T09:04:51;76979.75;;;-142.75;100.00
41632;BME280;37452;51.938;4.624;2023-03-21T09:07:18;76971.88;;;-142.75;100.00
41632;BME280;37452;51.938;4.624;2023-03-21T09:09:44;76979.75;;;-142.75;100.00
41632;BME280;37452;51.938;4.624;2023-03-21T09:12:09;76964.00;;;-142.75;100.00
41632;BME280;37452;51.938;4.624;2023-03-21T09:14:34;76962.03;;;-142.75;100.00
41632;BME280;37452;51.938;4.624;2023-03-21T09:17:00;76944.31;;;-142.75;100.00
41632;BME280;37452;51.938;4.624;2023-03-21T09:19:25;76938.41;;;-142.75;100.00
41632;BME280;37452;51.938;4.624;2023-03-21T09:21:51;76940.38;;;-142.75;100.00
41632;BME280;37452;51.938;4.624;2023-03-21T09:24:17;76952.19;;;-142.75;100.00
41632;BME280;37452;51.938;4.624;2023-03-21T09:26:42;76934.47;;;-142.75;100.00
41632;BME280;37452;51.938;4.624;2023-03-21T09:29:08;76922.66;;;-142.75;100.00
41632;BME280;37452;51.938;4.624;2023-03-21T09:31:34;76928.56;;;-142.75;100.00
41632;BME280;37452;51.938;4.624;2023-03-21T09:33:59;76920.69;;;-142.75;100.00
41632;BME280;37452;51.938;4.624;2023-03-21T09:36:25;76910.84;;;-142.75;100.00
41632;BME280;37452;51.938;4.624;2023-03-21T09:38:51;76922.66;;;-142.75;100.00
41632;BME280;37452;51.938;4.624;2023-03-21T09:43:58;76893.13;;;-142.75;100.00
41632;BME280;37452;51.938;4.624;2023-03-21T09:46:31;76893.13;;;-142.75;100.00
41632;BME280;37452;51.938;4.624;2023-03-21T09:49:06;76914.78;;;-142.75;100.00
41632;BME280;37452;51.938;4.624;2023-03-21T09:51:36;76897.06;;;-142.75;100.00
41632;BME280;37452;51.938;4.624;2023-03-21T09:54:04;76920.69;;;-142.75;100.00
41632;BME280;37452;51.938;4.624;2023-03-21T09:56:31;76926.59;;;-142.75;100.00
41632;BME280;37452;51.938;4.624;2023-03-21T09:58:57;76918.72;;;-142.75;100.00
41632;BME280;37452;51.938;4.624;2023-03-21T10:03:54;76901.00;;;-142.75;100.00
41632;BME280;37452;51.938;4.624;2023-03-21T10:06:21;76910.84;;;-142.75;100.00
41632;BME280;37452;51.938;4.624;2023-03-21T10:08:52;76906.91;;;-142.75;100.00
41632;BME280;37452;51.938;4.624;2023-03-21T10:11:23;76893.13;;;-142.75;100.00
41632;BME280;37452;51.938;4.624;2023-03-21T10:13:50;76887.22;;;-142.75;100.00
41632;BME280;37452;51.938;4.624;2023-03-21T10:16:24;76855.72;;;-142.75;100.00
41632;BME280;37452;51.938;4.624;2023-03-21T10:18:50;76869.50;;;-142.75;100.00
41632;BME280;37452;51.938;4.624;2023-03-21T10:21:19;76877.38;;;-142.75;100.00
41632;BME280;37452;51.938;4.624;2023-03-21T10:23:45;76889.19;;;-142.75;100.00
41632;BME280;37452;51.938;4.624;2023-03-21T10:26:10;76885.25;;;-142.75;100.00
41632;BME280;37452;51.938;4.624;2023-03-21T10:28:37;76899.03;;;-142.75;100.00
41632;BME280;37452;51.938;4.624;2023-03-21T10:31:06;76906.91;;;-142.75;100.00
41632;BME280;37452;51.938;4.624;2023-03-21T10:33:36;76916.75;;;-142.75;100.00
41632;BME280;37452;51.938;4.624;2023-03-21T10:36:04;76897.06;;;-142.75;100.00
41632;BME280;37452;51.938;4.624;2023-03-21T10:38:30;76897.06;;;-142.75;100.00
41632;BME280;37452;51.938;4.624;2023-03-21T10:40:56;76869.50;;;-142.75;100.00
41632;BME280;37452;51.938;4.624;2023-03-21T10:45:50;76826.19;;;-142.75;100.00
41632;BME280;37452;51.938;4.624;2023-03-21T10:48:15;76830.13;;;-142.75;100.00
41632;BME280;37452;51.938;4.624;2023-03-21T10:50:41;76828.16;;;-142.75;100.00
41632;BME280;37452;51.938;4.624;2023-03-21T10:53:12;76845.88;;;-142.75;100.00
41632;BME280;37452;51.938;4.624;2023-03-21T10:55:39;76847.84;;;-142.75;100.00
41632;BME280;37452;51.938;4.624;2023-03-21T10:58:06;76830.13;;;-142.75;100.00
41632;BME280;37452;51.938;4.624;2023-03-21T11:00:36;76847.84;;;-142.75;100.00
41632;BME280;37452;51.938;4.624;2023-03-21T11:03:01;76810.44;;;-142.75;100.00
41632;BME280;37452;51.938;4.624;2023-03-21T11:05:35;76790.78;;;-142.75;100.00
41632;BME280;37452;51.938;4.624;2023-03-21T11:10:33;76812.41;;;-142.75;100.00
41632;BME280;37452;51.938;4.624;2023-03-21T11:13:04;76830.13;;;-142.75;100.00
41632;BME280;37452;51.938;4.624;2023-03-21T11:23:16;76826.19;;;-142.75;100.00
41632;BME280;37452;51.938;4.624;2023-03-21T11:25:42;76830.13;;;-142.75;100.00
41632;BME280;37452;51.938;4.624;2023-03-21T11:28:08;76853.75;;;-142.75;100.00
41632;BME280;37452;51.938;4.624;2023-03-21T11:30:36;76834.06;;;-142.75;100.00
41632;BME280;37452;51.938;4.624;2023-03-21T11:33:01;76838.00;;;-142.75;100.00
41632;BME280;37452;51.938;4.624;2023-03-21T11:35:32;76826.19;;;-142.75;100.00
41632;BME280;37452;51.938;4.624;2023-03-21T11:37:57;76824.22;;;-142.75;100.00
41632;BME280;37452;51.938;4.624;2023-03-21T11:42:51;76820.28;;;-142.75;100.00
41632;BME280;37452;51.938;4.624;2023-03-21T11:45:19;76794.69;;;-142.75;100.00
41632;BME280;37452;51.938;4.624;2023-03-21T11:47:45;76806.50;;;-142.75;100.00
41632;BME280;37452;51.938;4.624;2023-03-21T11:50:23;76778.97;;;-142.75;100.00
41632;BME280;37452;51.938;4.624;2023-03-21T12:05:58;76739.59;;;-142.75;100.00
41632;BME280;37452;51.938;4.624;2023-03-21T12:08:31;76719.91;;;-142.75;100.00
41632;BME280;37452;51.938;4.624;2023-03-21T12:13:35;76637.22;;;-142.75;100.00
41632;BME280;37452;51.938;4.624;2023-03-21T12:34:05;76763.22;;;-142.75;100.00
41632;BME280;37452;51.938;4.624;2023-03-21T12:36:30;76782.91;;;-142.75;100.00
41632;BME280;37452;51.938;4.624;2023-03-21T12:41:44;76782.91;;;-142.75;100.00
41632;BME280;37452;51.938;4.624;2023-03-21T12:44:14;76786.84;;;-142.75;100.00
41632;BME280;37452;51.938;4.624;2023-03-21T12:51:38;76747.47;;;-142.75;100.00
41632;BME280;37452;51.938;4.624;2023-03-21T12:56:42;76767.16;;;-142.75;100.00
41632;BME280;37452;51.938;4.624;2023-03-21T13:01:51;76765.19;;;-142.75;100.00
41632;BME280;37452;51.938;4.624;2023-03-21T13:06:45;76745.50;;;-142.75;100.00
41632;BME280;37452;51.938;4.624;2023-03-21T13:09:14;76723.84;;;-142.75;100.00
41632;BME280;37452;51.938;4.624;2023-03-21T13:11:40;76741.56;;;-142.75;100.00
41632;BME280;37452;51.938;4.624;2023-03-21T13:14:07;76700.22;;;-142.75;100.00
41632;BME280;37452;51.938;4.624;2023-03-21T13:16:58;76700.22;;;-142.75;100.00
41632;BME280;37452;51.938;4.624;2023-03-21T13:19:27;76731.72;;;-142.75;100.00
41632;BME280;37452;51.938;4.624;2023-03-21T13:24:41;76739.59;;;-142.75;100.00
41632;BME280;37452;51.938;4.624;2023-03-21T13:30:00;76775.03;;;-142.75;100.00
41632;BME280;37452;51.938;4.624;2023-03-21T13:32:39;76771.09;;;-142.75;100.00
41632;BME280;37452;51.938;4.624;2023-03-21T13:37:34;76771.09;;;-142.75;100.00
41632;BME280;37452;51.938;4.624;2023-03-21T13:40:06;76771.09;;;-142.75;100.00
41632;BME280;37452;51.938;4.624;2023-03-21T13:42:41;76759.28;;;-142.75;100.00
41632;BME280;37452;51.938;4.624;2023-03-21T13:45:09;76751.41;;;-142.75;100.00
41632;BME280;37452;51.938;4.624;2023-03-21T13:55:40;76782.91;;;-142.75;100.00
41632;BME280;37452;51.938;4.624;2023-03-21T14:03:33;76741.56;;;-142.75;100.00
41632;BME280;37452;51.938;4.624;2023-03-21T14:05:58;76757.31;;;-142.75;100.00
41632;BME280;37452;51.938;4.624;2023-03-21T14:08:24;76759.28;;;-142.75;100.00
41632;BME280;37452;51.938;4.624;2023-03-21T14:10:52;76751.41;;;-142.75;100.00
41632;BME280;37452;51.938;4.624;2023-03-21T14:13:20;76751.41;;;-142.75;100.00
41632;BME280;37452;51.938;4.624;2023-03-21T14:15:47;76761.25;;;-142.75;100.00
41632;BME280;37452;51.938;4.624;2023-03-21T14:18:18;76747.47;;;-142.75;100.00
41632;BME280;37452;51.938;4.624;2023-03-21T14:20:43;76743.53;;;-142.75;100.00
41632;BME280;37452;51.938;4.624;2023-03-21T14:23:12;76739.59;;;-142.75;100.00
41632;BME280;37452;51.938;4.624;2023-03-21T14:25:38;76755.34;;;-142.75;100.00
41632;BME280;37452;51.938;4.624;2023-03-21T14:28:05;76763.22;;;-142.75;100.00